الصفحة الرئيسية
METAR-TAF:

METAR-TAF

مطار :

Horn Island, أستراليا

دائرة عرض: 10-35-11S, خط طول: 142-07-24E, ارتفاع: 13 متر

مراقبة الطقس الحالي

تاريخ ووقت الإصدار 40 دقيقة قبل الساعة 21:30UTC
ريح 7 عقدة من الجنوب الشرقي
درجة الحرارة 26°درجة مئوية
الرطوبة 79%
ضغط 1015 hPa
الرؤية 10 كم أو أكثر
غيوم مفككة على ارتفاع 4600 قدم
ملبد بالغيوم على ارتفاع 5100 قدم

METAR: YHID 252130Z AUTO 14007KT 9999 // BKN046 OVC051 26/22 Q1015

زمن: 08:10 (22:10 UTC)

توقعات

تاريخ ووقت الإصدار 5ساعات و 10 دقيقة قبل الساعة 17:00UTC
التوقعات صالحة من25 الساعة 18 UTC إلى 26 الساعة 18 UTC
ريح 12 عقدة من الجنوب الشرقي
الرؤية 10 كم أو أكثر
غيوم مفككة على ارتفاع 3000 قدم

TAF: YHID 251700Z 2518/2618 13012KT 9999 BKN030

أرصاد الطقس والتوقعات من أكثر من 4000 مطار (تقارير الطقس للمطار METAR والتنبؤ بالطقس بالمطارTAF).

المحطات المتاحة هي النقط الصفراء والحمراء على الخريطة.

حرك المؤشر فوق النقطة لمعرفة اسم المحطة.

ثم انقر لمعرفة أرصاد وتوقعات الطقس.

لتغيير الخارطة: اضغط على الأزرار الخضراء مع رمز الصليب الأسود للتكبير. على الزر الأخضر مع شرطة للتصغير، أو على الأسهم الخضراء للخرائط المجاورة.


METAR-TAF: